Time;durP1;ratioP1;P1;durP2;ratioP2;P2;SDS_P1;SDS_P2;PMS_P1;PMS_P2;Temp;Humidity;BMP_temperature;BMP_pressure;BME280_temperature;BME280_humidity;BME280_pressure;Samples;Min_cycle;Max_cycle;Signal;HPM_P1;HPM_P2
2023/09/23 00:01:32;;;;;;;6.43;3.60;;;;;;;10.80;100.00;100653.06;4892702;29;20032;-69
2023/09/23 00:03:57;;;;;;;7.82;4.03;;;;;;;10.74;100.00;100656.50;4894004;29;20044;-69
2023/09/23 00:06:23;;;;;;;11.93;6.10;;;;;;;10.72;100.00;100655.91;4893986;29;20033;-70
2023/09/23 00:08:49;;;;;;;11.25;5.50;;;;;;;10.70;100.00;100669.44;4893836;29;20517;-70
2023/09/23 00:11:14;;;;;;;9.48;4.95;;;;;;;10.70;100.00;100658.78;4893724;29;20067;-69
2023/09/23 00:13:40;;;;;;;13.20;6.38;;;;;;;10.66;100.00;100662.03;4893877;29;20048;-69
2023/09/23 00:16:11;;;;;;;12.98;6.85;;;;;;;10.67;100.00;100667.19;4893859;29;20064;-69
2023/09/23 00:18:38;;;;;;;14.02;7.30;;;;;;;10.64;100.00;100656.94;4894118;29;20853;-69
2023/09/23 00:21:05;;;;;;;13.00;6.78;;;;;;;10.65;100.00;100663.91;4893763;29;20028;-70
2023/09/23 00:23:32;;;;;;;12.95;6.18;;;;;;;10.59;100.00;100648.72;4893755;29;20455;-69
2023/09/23 00:25:58;;;;;;;13.40;7.53;;;;;;;10.53;100.00;100661.00;4896297;29;20036;-69
2023/09/23 00:28:30;;;;;;;16.55;7.68;;;;;;;10.58;100.00;100672.91;4895861;29;20378;-69
2023/09/23 00:31:11;;;;;;;16.13;8.10;;;;;;;10.57;100.00;100663.25;4897104;29;20047;-70
2023/09/23 00:33:37;;;;;;;13.82;7.25;;;;;;;10.56;100.00;100664.28;4897102;29;20044;-70
2023/09/23 00:36:07;;;;;;;14.70;7.18;;;;;;;10.50;100.00;100664.06;4896892;29;20071;-69
2023/09/23 00:38:33;;;;;;;14.18;7.75;;;;;;;10.53;100.00;100673.50;4896980;29;20056;-69
2023/09/23 00:40:59;;;;;;;17.35;8.50;;;;;;;10.52;100.00;100670.00;4879997;29;20143;-70
2023/09/23 00:43:24;;;;;;;14.88;8.20;;;;;;;10.51;100.00;100678.22;4896996;29;20040;-69
2023/09/23 00:45:54;;;;;;;15.52;7.47;;;;;;;10.50;100.00;100681.91;4896878;29;20028;-69
2023/09/23 00:48:20;;;;;;;15.30;8.57;;;;;;;10.49;100.00;100691.75;4896722;29;20036;-69
2023/09/23 00:50:47;;;;;;;16.65;8.40;;;;;;;10.47;100.00;100692.97;4896757;29;20041;-69
2023/09/23 00:53:13;;;;;;;16.30;8.60;;;;;;;10.48;100.00;100689.31;4896566;29;20396;-69
2023/09/23 00:55:43;;;;;;;17.17;9.13;;;;;;;10.49;100.00;100693.59;4879635;29;20032;-70
2023/09/23 00:58:14;;;;;;;16.50;9.18;;;;;;;10.51;100.00;100688.91;4896686;29;20029;-69
2023/09/23 01:00:43;;;;;;;18.50;8.70;;;;;;;10.55;100.00;100691.97;4896595;29;20108;-69
2023/09/23 01:03:11;;;;;;;15.82;8.73;;;;;;;10.53;100.00;100695.69;4896571;29;20037;-69
2023/09/23 01:05:39;;;;;;;17.17;8.68;;;;;;;10.57;100.00;100696.09;4879599;29;20468;-69
2023/09/23 01:08:07;;;;;;;17.73;9.82;;;;;;;10.56;100.00;100689.13;4896479;29;20613;-70
2023/09/23 01:10:32;;;;;;;18.75;9.55;;;;;;;10.59;100.00;100690.56;4896282;29;20167;-69
2023/09/23 01:12:59;;;;;;;18.63;9.57;;;;;;;10.59;100.00;100693.22;4896430;29;20097;-69
2023/09/23 01:15:30;;;;;;;17.20;10.10;;;;;;;10.58;100.00;100691.56;4896327;29;20045;-69
2023/09/23 01:17:56;;;;;;;24.88;10.13;;;;;;;10.56;100.00;100702.44;4896206;29;20024;-70
2023/09/23 01:20:22;;;;;;;19.70;10.70;;;;;;;10.55;100.00;100697.31;4896230;29;20040;-70
2023/09/23 01:22:47;;;;;;;18.83;9.93;;;;;;;10.46;100.00;100691.34;4896367;29;20028;-69
2023/09/23 01:25:13;;;;;;;18.08;9.93;;;;;;;10.53;100.00;100706.34;4896150;29;20496;-70
2023/09/23 01:27:39;;;;;;;17.95;9.70;;;;;;;10.47;100.00;100707.13;4896138;29;20041;-69
2023/09/23 01:30:05;;;;;;;19.15;9.10;;;;;;;10.51;100.00;100708.38;4896159;29;21062;-70
2023/09/23 01:32:39;;;;;;;19.90;9.95;;;;;;;10.50;100.00;100720.03;4895998;29;20036;-70
2023/09/23 01:35:05;;;;;;;19.27;8.35;;;;;;;10.51;100.00;100718.22;4895887;29;20032;-69
2023/09/23 01:37:31;;;;;;;15.80;8.07;;;;;;;10.52;100.00;100714.53;4895192;29;20029;-69
2023/09/23 01:39:56;;;;;;;18.02;8.18;;;;;;;10.56;100.00;100706.94;4895721;29;20484;-69
2023/09/23 01:42:21;;;;;;;13.52;6.93;;;;;;;10.59;100.00;100718.03;4895878;29;20041;-69
2023/09/23 01:44:48;;;;;;;16.90;7.82;;;;;;;10.61;100.00;100716.00;4894471;29;20045;-69
2023/09/23 01:47:16;;;;;;;16.23;8.75;;;;;;;10.67;100.00;100717.88;4895567;29;20024;-70
2023/09/23 01:49:43;;;;;;;18.00;7.22;;;;;;;10.69;100.00;100715.00;4895610;29;20042;-69
2023/09/23 01:52:08;;;;;;;16.27;8.38;;;;;;;10.77;100.00;100736.16;4895725;29;20123;-69
2023/09/23 01:54:34;;;;;;;17.30;7.32;;;;;;;10.80;100.00;100733.09;4895593;29;20123;-70
2023/09/23 01:57:01;;;;;;;15.95;7.30;;;;;;;10.82;100.00;100736.38;4895475;29;20370;-69
2023/09/23 01:59:27;;;;;;;14.13;7.18;;;;;;;10.83;100.00;100738.03;4895535;29;20036;-69
2023/09/23 02:01:52;;;;;;;15.38;7.30;;;;;;;10.85;100.00;100732.50;4895559;29;20521;-70
2023/09/23 02:04:18;;;;;;;16.10;7.97;;;;;;;10.88;100.00;100732.91;4895409;29;20039;-70
2023/09/23 02:06:43;;;;;;;13.40;6.53;;;;;;;10.90;100.00;100740.72;4895345;29;20029;-70
2023/09/23 02:09:09;;;;;;;13.80;6.13;;;;;;;10.88;100.00;100740.91;4895366;29;20036;-69
2023/09/23 02:11:38;;;;;;;12.93;6.03;;;;;;;10.92;100.00;100743.97;4895005;29;20060;-69
2023/09/23 02:14:06;;;;;;;13.57;6.55;;;;;;;10.93;100.00;100748.31;4895432;29;20044;-69
2023/09/23 02:16:33;;;;;;;12.90;6.68;;;;;;;10.95;100.00;100751.59;4895243;29;20033;-69
2023/09/23 02:18:58;;;;;;;12.30;6.18;;;;;;;10.97;100.00;100749.53;4895226;29;20953;-69
2023/09/23 02:21:27;;;;;;;16.77;5.72;;;;;;;10.98;100.00;100751.19;4895168;29;20033;-69
2023/09/23 02:23:53;;;;;;;12.27;6.00;;;;;;;10.99;100.00;100762.69;4895056;29;20099;-69
2023/09/23 02:26:19;;;;;;;10.48;5.32;;;;;;;11.00;100.00;100759.00;4894792;29;20037;-70
2023/09/23 02:28:47;;;;;;;12.65;5.60;;;;;;;10.97;100.00;100763.69;4895001;29;20043;-69
2023/09/23 02:31:12;;;;;;;11.20;4.85;;;;;;;10.85;100.00;100752.00;4895012;29;20028;-70
2023/09/23 02:33:38;;;;;;;12.52;5.40;;;;;;;10.89;100.00;100755.06;4894997;29;20115;-70
2023/09/23 02:36:03;;;;;;;12.70;5.43;;;;;;;10.89;100.00;100763.06;4894914;29;20033;-70
2023/09/23 02:38:31;;;;;;;11.52;5.57;;;;;;;10.89;100.00;100773.75;4894854;29;20080;-69
2023/09/23 02:41:00;;;;;;;12.95;5.32;;;;;;;10.84;100.00;100770.84;4894870;29;20048;-70
2023/09/23 02:43:26;;;;;;;13.38;5.30;;;;;;;10.85;100.00;100776.00;4894715;29;20036;-70
2023/09/23 02:45:56;;;;;;;9.25;4.97;;;;;;;10.75;100.00;100779.03;4894748;29;20473;-69
2023/09/23 02:48:22;;;;;;;11.30;5.22;;;;;;;10.80;100.00;100785.63;4894529;29;20036;-70
2023/09/23 02:50:47;;;;;;;9.60;4.47;;;;;;;10.78;100.00;100785.00;4893532;29;20040;-70
2023/09/23 02:53:13;;;;;;;11.20;5.13;;;;;;;10.73;100.00;100786.41;4894628;29;20032;-70
2023/09/23 02:55:41;;;;;;;10.40;5.15;;;;;;;10.74;100.00;100800.56;4877874;29;20028;-69
2023/09/23 02:58:07;;;;;;;10.02;4.53;;;;;;;10.70;100.00;100794.00;4894337;29;20124;-69
2023/09/23 03:00:34;;;;;;;14.10;5.07;;;;;;;10.69;100.00;100787.03;4894615;29;20396;-69
2023/09/23 03:03:08;;;;;;;10.93;5.05;;;;;;;10.70;100.00;100802.00;4894516;29;20028;-70
2023/09/23 03:05:38;;;;;;;11.40;4.00;;;;;;;10.71;100.00;100800.97;4894701;29;20036;-69
2023/09/23 03:08:07;;;;;;;8.73;4.03;;;;;;;10.66;100.00;100798.06;4894223;29;20025;-70
2023/09/23 03:10:34;;;;;;;10.13;5.47;;;;;;;10.65;100.00;100801.78;4892898;29;20076;-69
2023/09/23 03:13:05;;;;;;;12.07;5.65;;;;;;;10.63;100.00;100807.28;4894253;29;20045;-70
2023/09/23 03:15:44;;;;;;;9.55;5.43;;;;;;;10.62;100.00;100808.31;4894429;29;20510;-70
2023/09/23 03:18:09;;;;;;;10.30;4.38;;;;;;;10.58;100.00;100800.91;4894283;29;20080;-70
2023/09/23 03:20:36;;;;;;;11.85;4.80;;;;;;;10.58;100.00;100808.91;4894314;29;20040;-70
2023/09/23 03:23:03;;;;;;;9.40;4.38;;;;;;;10.58;100.00;100808.91;4894392;29;20388;-70
2023/09/23 03:25:28;;;;;;;8.25;4.10;;;;;;;10.54;100.00;100808.50;4894075;29;20041;-70
2023/09/23 03:27:55;;;;;;;8.27;3.92;;;;;;;10.52;100.00;100811.34;4894177;29;20029;-70
2023/09/23 03:30:20;;;;;;;9.93;3.85;;;;;;;10.52;100.00;100818.53;4894311;29;20028;-71
2023/09/23 03:32:46;;;;;;;9.27;3.65;;;;;;;10.52;100.00;100811.34;4894287;29;20047;-69
2023/09/23 03:35:16;;;;;;;9.55;3.67;;;;;;;10.54;100.00;100819.16;4894181;29;20037;-70
2023/09/23 03:37:41;;;;;;;12.07;4.57;;;;;;;10.52;100.00;100821.19;4894293;29;20035;-70
2023/09/23 03:40:07;;;;;;;9.23;4.63;;;;;;;10.51;100.00;100825.72;4894156;29;20040;-69
2023/09/23 03:42:33;;;;;;;7.03;3.63;;;;;;;10.52;100.00;100823.84;4846618;29;20040;-69
2023/09/23 03:44:59;;;;;;;11.32;4.13;;;;;;;10.51;100.00;100825.72;4896274;29;20036;-70
2023/09/23 03:47:24;;;;;;;7.57;3.22;;;;;;;10.51;100.00;100830.22;4877252;29;20540;-70
2023/09/23 03:49:50;;;;;;;8.32;3.78;;;;;;;10.50;100.00;100829.38;4894048;29;20112;-70
2023/09/23 03:52:16;;;;;;;8.70;3.75;;;;;;;10.50;100.00;100833.88;4893957;29;20032;-69
2023/09/23 03:54:41;;;;;;;6.28;3.42;;;;;;;10.48;100.00;100827.94;4894051;29;20036;-70
2023/09/23 03:57:07;;;;;;;11.65;3.65;;;;;;;10.47;100.00;100829.78;4894132;29;20024;-69
2023/09/23 03:59:35;;;;;;;10.25;3.45;;;;;;;10.44;100.00;100832.03;4894766;29;20037;-69
2023/09/23 04:02:00;;;;;;;7.53;3.78;;;;;;;10.43;100.00;100836.53;4897710;29;20084;-69
2023/09/23 04:04:25;;;;;;;8.43;3.67;;;;;;;10.45;100.00;100845.16;4897399;29;20159;-70
2023/09/23 04:06:51;;;;;;;10.68;4.00;;;;;;;10.47;100.00;100842.28;4880409;29;20036;-69
2023/09/23 04:09:17;;;;;;;9.15;3.55;;;;;;;10.47;100.00;100843.09;4897688;29;20087;-69
2023/09/23 04:11:43;;;;;;;8.75;3.00;;;;;;;10.48;100.00;100841.28;4897202;29;20151;-70
2023/09/23 04:14:08;;;;;;;11.85;3.72;;;;;;;10.49;100.00;100832.25;4897623;29;20072;-69
2023/09/23 04:16:33;;;;;;;11.45;3.70;;;;;;;10.52;100.00;100847.84;4897373;29;20088;-70
2023/09/23 04:18:59;;;;;;;8.00;3.47;;;;;;;10.50;100.00;100848.03;4897365;29;20071;-70
2023/09/23 04:21:25;;;;;;;8.88;3.53;;;;;;;10.48;100.00;100852.78;4897141;29;20040;-70
2023/09/23 04:23:52;;;;;;;7.82;3.38;;;;;;;10.47;100.00;100852.94;4880511;29;20445;-70
2023/09/23 04:26:21;;;;;;;9.10;4.03;;;;;;;10.46;100.00;100849.47;4897172;29;20400;-70
2023/09/23 04:28:48;;;;;;;10.30;3.63;;;;;;;10.47;100.00;100853.78;4897103;29;20032;-69
2023/09/23 04:31:13;;;;;;;6.80;3.85;;;;;;;10.48;100.00;100851.94;4897178;29;20123;-70
2023/09/23 04:33:39;;;;;;;9.20;4.35;;;;;;;10.45;100.00;100860.31;4896995;29;20147;-69
2023/09/23 04:36:09;;;;;;;10.15;3.72;;;;;;;10.48;100.00;100867.94;4880172;29;20036;-70
2023/09/23 04:38:34;;;;;;;10.35;3.80;;;;;;;10.48;100.00;100881.28;4897000;29;20029;-70
2023/09/23 04:41:00;;;;;;;12.30;4.00;;;;;;;10.47;100.00;100876.94;4896936;29;20075;-70
2023/09/23 04:43:25;;;;;;;10.55;3.47;;;;;;;10.44;100.00;100869.34;4897032;29;20033;-70
2023/09/23 04:45:51;;;;;;;8.93;4.10;;;;;;;10.46;100.00;100877.97;4895568;29;20091;-70
2023/09/23 04:48:18;;;;;;;9.93;3.65;;;;;;;10.46;100.00;100884.13;4896700;29;20055;-70
2023/09/23 04:50:44;;;;;;;6.82;3.38;;;;;;;10.42;100.00;100884.72;4896719;29;20032;-70
2023/09/23 04:53:11;;;;;;;5.25;3.08;;;;;;;10.44;100.00;100896.81;4896737;29;20040;-70
2023/09/23 04:55:37;;;;;;;8.55;3.70;;;;;;;10.40;100.00;100886.75;4896684;29;20036;-69
2023/09/23 04:58:02;;;;;;;17.63;4.20;;;;;;;10.42;100.00;100901.53;4879536;29;20539;-69
2023/09/23 05:00:32;;;;;;;7.10;3.20;;;;;;;10.40;100.00;100892.91;4896507;29;20579;-70
2023/09/23 05:02:58;;;;;;;7.95;3.53;;;;;;;10.41;100.00;100891.06;4895396;29;20141;-70
2023/09/23 05:05:23;;;;;;;7.78;3.30;;;;;;;10.39;100.00;100887.78;4896388;29;20872;-70
2023/09/23 05:07:48;;;;;;;6.15;3.38;;;;;;;10.40;100.00;100900.06;4896490;29;20067;-70
2023/09/23 05:10:14;;;;;;;8.50;3.20;;;;;;;10.36;100.00;100896.97;4896367;29;20040;-70
2023/09/23 05:12:40;;;;;;;9.10;4.22;;;;;;;10.36;100.00;100912.16;4893932;29;20618;-70
2023/09/23 05:15:09;;;;;;;11.75;5.55;;;;;;;10.35;100.00;100907.81;4896205;29;20400;-70
2023/09/23 05:17:35;;;;;;;8.85;4.32;;;;;;;10.31;100.00;100910.88;4879878;29;20052;-70
2023/09/23 05:20:02;;;;;;;6.55;3.85;;;;;;;10.38;100.00;100929.59;4896221;29;20083;-70
2023/09/23 05:22:28;;;;;;;6.88;3.85;;;;;;;10.37;100.00;100933.28;4895850;29;20666;-70
2023/09/23 05:24:57;;;;;;;6.75;3.65;;;;;;;10.33;100.00;100941.88;4896092;29;20119;-70
2023/09/23 05:27:23;;;;;;;9.63;4.35;;;;;;;10.36;100.00;100952.16;4878755;29;20578;-70
2023/09/23 05:29:50;;;;;;;12.52;4.78;;;;;;;10.36;100.00;100960.97;4895062;29;20148;-70
2023/09/23 05:32:16;;;;;;;7.22;3.03;;;;;;;10.33;100.00;100949.88;4895110;29;20040;-70
2023/09/23 05:34:42;;;;;;;13.65;3.55;;;;;;;10.35;100.00;100955.81;4878352;29;20036;-70
2023/09/23 05:37:11;;;;;;;8.85;4.10;;;;;;;10.31;100.00;100952.72;4878516;29;20166;-70
2023/09/23 05:39:37;;;;;;;8.98;4.25;;;;;;;10.30;100.00;100962.56;4895788;29;20043;-70
2023/09/23 05:42:03;;;;;;;8.05;3.50;;;;;;;10.34;100.00;100964.84;4895622;29;20511;-70
2023/09/23 05:44:28;;;;;;;14.27;3.72;;;;;;;10.34;100.00;100967.50;4895481;29;20072;-70
2023/09/23 05:46:53;;;;;;;5.75;3.67;;;;;;;10.29;100.00;100974.22;4895024;29;20544;-70
2023/09/23 05:49:19;;;;;;;6.05;3.72;;;;;;;10.35;100.00;100986.00;4894466;29;20497;-70
2023/09/23 05:51:45;;;;;;;8.23;4.25;;;;;;;10.28;100.00;100975.25;4895203;29;20056;-70
2023/09/23 05:54:11;;;;;;;7.25;4.22;;;;;;;10.33;100.00;100990.69;4895593;29;20499;-70
2023/09/23 05:56:36;;;;;;;9.50;3.80;;;;;;;10.32;100.00;100989.00;4895510;29;20041;-70
2023/09/23 05:59:01;;;;;;;8.43;5.03;;;;;;;10.36;100.00;100997.47;4894075;29;20088;-70
2023/09/23 06:01:27;;;;;;;9.73;3.97;;;;;;;10.37;100.00;101001.78;4895134;29;20028;-70
2023/09/23 06:03:52;;;;;;;10.20;4.43;;;;;;;10.38;100.00;101004.25;4895067;29;20499;-70
2023/09/23 06:06:18;;;;;;;9.32;5.03;;;;;;;10.43;100.00;101009.03;4895097;29;20040;-70
2023/09/23 06:08:47;;;;;;;8.23;3.47;;;;;;;10.46;100.00;101011.31;4895208;29;20068;-71
2023/09/23 06:11:14;;;;;;;9.18;3.85;;;;;;;10.50;100.00;101015.22;4894730;29;20041;-70
2023/09/23 06:13:40;;;;;;;7.00;3.50;;;;;;;10.52;100.00;101022.00;4895107;29;20036;-70
2023/09/23 06:16:06;;;;;;;10.32;3.83;;;;;;;10.56;100.00;101027.81;4878208;29;20081;-70
2023/09/23 06:18:33;;;;;;;9.25;3.92;;;;;;;10.59;100.00;101035.41;4894956;29;20058;-70
2023/09/23 06:20:59;;;;;;;9.63;3.95;;;;;;;10.62;100.00;101040.38;4894803;29;20032;-69
2023/09/23 06:23:25;;;;;;;9.30;3.85;;;;;;;10.65;100.00;101045.31;4894579;29;20032;-70
2023/09/23 06:26:00;;;;;;;11.00;4.38;;;;;;;10.71;100.00;101044.53;4894732;29;20036;-70
2023/09/23 06:28:26;;;;;;;8.00;4.07;;;;;;;10.74;100.00;101052.16;4894875;29;20041;-70
2023/09/23 06:30:52;;;;;;;9.77;3.97;;;;;;;10.77;100.00;101050.97;4894764;29;20389;-70
2023/09/23 06:33:18;;;;;;;8.98;4.35;;;;;;;10.84;100.00;101061.66;4894723;29;20111;-71
2023/09/23 06:35:43;;;;;;;9.90;4.05;;;;;;;10.88;100.00;101070.94;4894846;29;20119;-70
2023/09/23 06:38:09;;;;;;;10.52;4.13;;;;;;;10.89;100.00;101069.91;4894580;29;20032;-70
2023/09/23 06:40:34;;;;;;;10.20;4.82;;;;;;;10.91;100.00;101075.91;4894615;29;20037;-70
2023/09/23 06:42:59;;;;;;;10.40;3.65;;;;;;;10.90;100.00;101075.06;4894655;29;20033;-70
2023/09/23 06:45:25;;;;;;;12.85;4.38;;;;;;;10.93;100.00;101079.22;4877687;29;20043;-70
2023/09/23 06:47:50;;;;;;;6.85;4.15;;;;;;;10.98;100.00;101076.78;4894716;29;20080;-70
2023/09/23 06:50:16;;;;;;;12.18;3.95;;;;;;;11.02;100.00;101077.22;4894442;29;20025;-70
2023/09/23 06:52:42;;;;;;;6.15;3.75;;;;;;;11.10;100.00;101083.22;4894719;29;20085;-70
2023/09/23 06:55:07;;;;;;;8.00;3.88;;;;;;;11.07;100.00;101078.28;4894293;29;20060;-70
2023/09/23 06:57:35;;;;;;;8.38;4.65;;;;;;;11.03;100.00;101077.03;4894391;29;20040;-70
2023/09/23 07:00:01;;;;;;;10.55;5.05;;;;;;;11.09;100.00;101086.09;4894426;29;20119;-70
2023/09/23 07:02:27;;;;;;;14.00;5.07;;;;;;;11.18;100.00;101090.25;4894380;29;20045;-70
2023/09/23 07:04:52;;;;;;;10.07;4.68;;;;;;;11.24;100.00;101083.31;4894236;29;20037;-70
2023/09/23 07:07:17;;;;;;;10.48;4.55;;;;;;;11.31;100.00;101092.19;4894316;29;20437;-70
2023/09/23 07:09:43;;;;;;;8.30;4.57;;;;;;;11.36;100.00;101092.44;4894041;29;20622;-70
2023/09/23 07:12:12;;;;;;;10.85;4.25;;;;;;;11.43;100.00;101095.16;4892621;29;20098;-70
2023/09/23 07:14:38;;;;;;;9.05;3.58;;;;;;;11.50;100.00;101106.69;4893957;29;20543;-71
2023/09/23 07:17:04;;;;;;;9.23;4.72;;;;;;;11.56;100.00;101108.59;4894358;29;20115;-70
2023/09/23 07:19:29;;;;;;;10.57;4.10;;;;;;;11.56;100.00;101109.41;4894230;29;20388;-70
2023/09/23 07:21:54;;;;;;;10.25;3.85;;;;;;;11.63;100.00;101120.97;4894129;29;20033;-71
2023/09/23 07:24:20;;;;;;;9.13;4.15;;;;;;;11.72;100.00;101120.81;4893909;29;20032;-70
2023/09/23 07:26:45;;;;;;;11.18;4.95;;;;;;;11.76;100.00;101128.25;4893646;29;20049;-71
2023/09/23 07:29:10;;;;;;;10.73;4.25;;;;;;;11.80;100.00;101137.50;4877302;29;20048;-71
2023/09/23 07:31:36;;;;;;;9.60;4.10;;;;;;;11.85;100.00;101127.03;4877099;29;20656;-71
2023/09/23 07:34:01;;;;;;;7.30;4.03;;;;;;;11.85;100.00;101127.03;4894141;29;20495;-72
2023/09/23 07:36:27;;;;;;;13.40;4.97;;;;;;;11.97;100.00;101139.84;4897647;29;20388;-71
2023/09/23 07:38:52;;;;;;;13.50;4.75;;;;;;;11.96;100.00;101139.03;4897966;29;20469;-71
2023/09/23 07:41:17;;;;;;;13.98;6.82;;;;;;;12.09;100.00;101150.81;4897656;29;20492;-71
2023/09/23 07:43:43;;;;;;;13.05;5.15;;;;;;;12.15;100.00;101153.50;4892536;29;20120;-70
2023/09/23 07:46:08;;;;;;;11.32;5.10;;;;;;;12.21;100.00;101150.06;4889968;29;20575;-71
2023/09/23 07:48:33;;;;;;;17.30;5.93;;;;;;;12.28;100.00;101145.53;4895534;29;20025;-73
2023/09/23 07:50:59;;;;;;;9.70;4.90;;;;;;;12.34;100.00;101151.09;4897550;29;20060;-73
2023/09/23 07:53:24;;;;;;;13.13;4.85;;;;;;;12.42;100.00;101175.84;4897286;29;20036;-73
2023/09/23 07:55:50;;;;;;;11.40;6.28;;;;;;;12.46;100.00;101169.06;4897361;29;20087;-73
2023/09/23 07:58:15;;;;;;;10.20;4.97;;;;;;;12.46;100.00;101152.19;4897465;29;20517;-73
2023/09/23 08:00:41;;;;;;;14.43;5.82;;;;;;;12.54;100.00;101161.88;4897742;29;20032;-74
2023/09/23 08:03:07;;;;;;;9.57;5.13;;;;;;;12.54;100.00;101176.06;4897570;29;20091;-74
2023/09/23 08:05:32;;;;;;;11.60;4.95;;;;;;;12.67;100.00;101180.63;4897489;29;20496;-74
2023/09/23 08:07:58;;;;;;;12.48;5.43;;;;;;;12.72;100.00;101194.25;4897319;29;20151;-74
2023/09/23 08:10:24;;;;;;;10.88;5.72;;;;;;;12.79;100.00;101199.63;4897045;29;20032;-75
2023/09/23 08:12:49;;;;;;;10.80;5.35;;;;;;;12.86;100.00;101189.72;4896608;29;20044;-74
2023/09/23 08:15:14;;;;;;;9.18;4.80;;;;;;;12.91;100.00;101195.28;4879831;29;20040;-74
2023/09/23 08:17:40;;;;;;;10.23;4.53;;;;;;;12.98;100.00;101203.34;4897114;29;20040;-74
2023/09/23 08:20:17;;;;;;;6.60;4.20;;;;;;;13.06;100.00;101208.50;4897025;29;20043;-74
2023/09/23 08:22:47;;;;;;;11.13;4.55;;;;;;;13.14;100.00;101211.81;4896912;29;20044;-74
2023/09/23 08:25:14;;;;;;;9.02;4.75;;;;;;;13.20;100.00;101223.56;4895743;29;20032;-74
2023/09/23 08:27:41;;;;;;;11.27;5.82;;;;;;;13.29;100.00;101222.38;4879910;29;20028;-74
2023/09/23 08:30:13;;;;;;;8.35;4.13;;;;;;;13.44;100.00;101221.31;4896322;29;20503;-71
2023/09/23 08:32:39;;;;;;;8.82;4.60;;;;;;;13.54;100.00;101227.09;4896926;29;20036;-72
2023/09/23 08:35:06;;;;;;;10.68;4.13;;;;;;;13.68;100.00;101225.25;4896193;29;20047;-70
2023/09/23 08:37:31;;;;;;;10.85;4.72;;;;;;;13.88;100.00;101235.94;4888874;29;20060;-71
2023/09/23 08:39:57;;;;;;;7.18;4.50;;;;;;;13.99;100.00;101246.84;4887867;29;20522;-71
2023/09/23 08:42:24;;;;;;;10.48;5.43;;;;;;;13.95;100.00;101247.47;4889512;29;20040;-70
2023/09/23 08:44:50;;;;;;;14.63;4.72;;;;;;;14.08;100.00;101252.81;4889186;29;20488;-70
2023/09/23 08:47:18;;;;;;;12.25;4.95;;;;;;;14.28;100.00;101251.91;4871736;29;20052;-71
2023/09/23 08:49:47;;;;;;;8.00;4.00;;;;;;;14.38;100.00;101260.34;4888964;29;20059;-72
2023/09/23 08:52:15;;;;;;;5.47;4.38;;;;;;;14.59;100.00;101265.50;4888752;29;20040;-72
2023/09/23 08:54:41;;;;;;;9.88;3.55;;;;;;;14.74;100.00;101269.75;4888958;29;20143;-71
2023/09/23 08:57:06;;;;;;;9.20;3.85;;;;;;;14.73;100.00;101271.63;4890176;29;20475;-68
2023/09/23 08:59:31;;;;;;;11.57;5.00;;;;;;;14.83;100.00;101273.84;4895081;29;20040;-68
2023/09/23 09:01:57;;;;;;;7.53;3.40;;;;;;;14.88;100.00;101282.06;4894124;29;20028;-69
2023/09/23 09:04:23;;;;;;;8.50;4.90;;;;;;;14.71;100.00;101283.59;4894262;29;20111;-69
2023/09/23 09:06:53;;;;;;;6.93;3.70;;;;;;;14.77;100.00;101290.78;4894248;29;20187;-68
2023/09/23 09:09:19;;;;;;;7.88;3.80;;;;;;;14.78;100.00;101284.41;4894196;29;20040;-69
2023/09/23 09:11:46;;;;;;;10.00;4.05;;;;;;;14.79;100.00;101292.22;4895075;29;20088;-69
2023/09/23 09:14:11;;;;;;;12.68;3.58;;;;;;;14.81;100.00;101289.34;4894537;29;20052;-68
2023/09/23 09:16:38;;;;;;;7.15;3.95;;;;;;;14.90;100.00;101293.41;4895907;29;20029;-69
2023/09/23 09:19:03;;;;;;;14.07;4.70;;;;;;;14.83;100.00;101298.84;4896133;29;20037;-69
2023/09/23 09:21:30;;;;;;;7.28;3.97;;;;;;;14.78;100.00;101306.72;4895828;29;20040;-69
2023/09/23 09:23:56;;;;;;;7.55;3.85;;;;;;;14.69;100.00;101291.84;4896048;29;20024;-69
2023/09/23 09:26:21;;;;;;;5.75;3.65;;;;;;;14.78;100.00;101295.97;4879038;29;20062;-68
2023/09/23 09:28:47;;;;;;;11.38;4.07;;;;;;;14.80;100.00;101301.94;4895903;29;20039;-69
2023/09/23 09:31:15;;;;;;;7.97;3.25;;;;;;;14.79;100.00;101312.91;4895792;29;20523;-68
2023/09/23 09:33:46;;;;;;;7.00;3.88;;;;;;;14.67;100.00;101301.97;4895754;29;20543;-68
2023/09/23 09:36:13;;;;;;;8.23;5.28;;;;;;;14.62;100.00;101317.94;4895583;29;20081;-68
2023/09/23 09:38:43;;;;;;;11.10;5.07;;;;;;;14.67;100.00;101332.38;4894495;29;20028;-68
2023/09/23 09:41:16;;;;;;;7.88;3.75;;;;;;;14.62;100.00;101325.97;4895650;29;20476;-68
2023/09/23 09:43:45;;;;;;;7.70;4.00;;;;;;;14.55;100.00;101335.91;4895235;29;20048;-69
2023/09/23 09:46:13;;;;;;;8.13;4.15;;;;;;;14.52;100.00;101325.56;4895539;29;20024;-68
2023/09/23 09:48:41;;;;;;;3.70;3.28;;;;;;;14.51;100.00;101332.78;4895388;29;20080;-68
2023/09/23 09:51:07;;;;;;;7.57;3.38;;;;;;;14.52;100.00;101336.31;4895668;29;20115;-69
2023/09/23 09:53:36;;;;;;;10.90;4.43;;;;;;;14.55;100.00;101331.34;4895351;29;20041;-68
2023/09/23 09:56:04;;;;;;;7.45;4.00;;;;;;;14.62;100.00;101334.03;4895357;29;20033;-68
2023/09/23 09:58:41;;;;;;;9.82;5.28;;;;;;;14.74;100.00;101336.88;4894605;29;20135;-69
2023/09/23 10:01:13;;;;;;;9.52;4.25;;;;;;;14.76;100.00;101345.53;4878374;29;20393;-68
2023/09/23 10:03:40;;;;;;;;;;;;;;;14.78;100.00;101340.78;4894401;29;20040;-68
2023/09/23 10:06:07;;;;;;;10.35;5.05;;;;;;;14.64;100.00;101340.81;4895274;29;19919;-69
2023/09/23 10:08:38;;;;;;;8.00;4.10;;;;;;;14.65;100.00;101342.47;4895083;29;20033;-68
2023/09/23 10:11:07;;;;;;;6.22;3.90;;;;;;;14.63;100.00;101336.50;4894881;29;20072;-68
2023/09/23 10:13:33;;;;;;;5.97;3.20;;;;;;;14.68;100.00;101352.78;4893605;29;20881;-69
2023/09/23 10:16:13;;;;;;;6.60;3.55;;;;;;;14.68;100.00;101349.28;4894715;29;20029;-69
2023/09/23 10:18:40;;;;;;;10.63;3.88;;;;;;;14.64;100.00;101348.88;4893878;29;20108;-68
2023/09/23 10:21:07;;;;;;;4.80;2.90;;;;;;;14.68;100.00;101352.78;4894954;29;20392;-69
2023/09/23 10:23:39;;;;;;;12.70;3.85;;;;;;;14.75;100.00;101360.00;4894655;29;20054;-68
2023/09/23 10:26:13;;;;;;;7.05;3.35;;;;;;;14.75;100.00;101366.22;4894853;29;20075;-69
2023/09/23 10:28:39;;;;;;;9.73;4.47;;;;;;;14.76;100.00;101361.66;4894859;29;20093;-68
2023/09/23 10:31:05;;;;;;;6.45;3.78;;;;;;;14.86;100.00;101368.22;4894711;29;20437;-68
2023/09/23 10:33:32;;;;;;;8.38;3.83;;;;;;;14.91;100.00;101370.28;4894530;29;20028;-68
2023/09/23 10:35:58;;;;;;;7.90;4.95;;;;;;;14.89;100.00;101372.34;4877762;29;20464;-67
2023/09/23 10:38:26;;;;;;;9.18;4.38;;;;;;;14.90;100.00;101382.88;4894525;29;20036;-69
2023/09/23 10:40:53;;;;;;;8.20;5.32;;;;;;;14.92;100.00;101373.78;4894703;29;20111;-68
2023/09/23 10:43:21;;;;;;;7.57;4.22;;;;;;;14.90;100.00;101377.50;4894383;29;20036;-68
2023/09/23 10:45:48;;;;;;;10.48;5.53;;;;;;;14.95;100.00;101382.22;4894421;29;20024;-68
2023/09/23 10:48:14;;;;;;;18.23;4.95;;;;;;;15.00;100.00;101382.41;4894283;29;20041;-68
2023/09/23 10:50:40;;;;;;;8.70;4.10;;;;;;;15.04;100.00;101378.28;4894145;29;20387;-69
2023/09/23 10:53:07;;;;;;;7.32;5.03;;;;;;;15.13;100.00;101381.53;4894334;29;20492;-68
2023/09/23 10:55:34;;;;;;;12.93;6.13;;;;;;;15.18;100.00;101384.41;4894447;29;20036;-68
2023/09/23 10:58:00;;;;;;;12.00;4.57;;;;;;;15.22;100.00;101387.50;4893594;29;20043;-68
2023/09/23 11:00:26;;;;;;;8.02;4.22;;;;;;;15.25;100.00;101389.78;4893845;29;20044;-68
2023/09/23 11:02:52;;;;;;;9.20;4.70;;;;;;;15.25;100.00;101400.53;4894340;29;20033;-68
2023/09/23 11:05:21;;;;;;;8.52;4.60;;;;;;;15.21;100.00;101405.47;4894095;29;20036;-69
2023/09/23 11:07:47;;;;;;;10.10;5.13;;;;;;;15.13;100.00;101413.78;4893970;29;20036;-68
2023/09/23 11:10:13;;;;;;;10.25;4.50;;;;;;;15.07;100.00;101420.84;4894266;29;20032;-69